sensor_id;sensor_type;location;lat;lon;timestamp;temperature;humidity
1476;DHT22;730;48.870;12.542;2023-08-24T00:01:25;22.30;1.00
1476;DHT22;730;48.870;12.542;2023-08-24T00:03:52;22.20;1.00
1476;DHT22;730;48.870;12.542;2023-08-24T00:06:18;22.10;1.00
1476;DHT22;730;48.870;12.542;2023-08-24T00:08:44;22.10;1.00
1476;DHT22;730;48.870;12.542;2023-08-24T00:11:10;22.00;1.00
1476;DHT22;730;48.870;12.542;2023-08-24T00:13:44;22.00;1.00
1476;DHT22;730;48.870;12.542;2023-08-24T00:16:18;21.90;1.00
1476;DHT22;730;48.870;12.542;2023-08-24T00:18:45;21.90;1.00
1476;DHT22;730;48.870;12.542;2023-08-24T00:21:16;21.80;1.00
1476;DHT22;730;48.870;12.542;2023-08-24T00:23:49;21.80;1.00
1476;DHT22;730;48.870;12.542;2023-08-24T00:26:15;21.70;1.00
1476;DHT22;730;48.870;12.542;2023-08-24T00:28:44;21.70;1.00
1476;DHT22;730;48.870;12.542;2023-08-24T00:31:11;21.70;1.00
1476;DHT22;730;48.870;12.542;2023-08-24T00:33:37;21.60;1.00
1476;DHT22;730;48.870;12.542;2023-08-24T00:36:05;21.60;1.00
1476;DHT22;730;48.870;12.542;2023-08-24T00:38:31;21.60;1.00
1476;DHT22;730;48.870;12.542;2023-08-24T00:40:58;21.50;1.00
1476;DHT22;730;48.870;12.542;2023-08-24T00:43:25;21.40;1.00
1476;DHT22;730;48.870;12.542;2023-08-24T00:45:52;21.40;1.00
1476;DHT22;730;48.870;12.542;2023-08-24T00:48:20;21.40;1.00
1476;DHT22;730;48.870;12.542;2023-08-24T00:50:47;21.40;1.00
1476;DHT22;730;48.870;12.542;2023-08-24T00:53:13;21.30;1.00
1476;DHT22;730;48.870;12.542;2023-08-24T00:55:39;21.30;1.00
1476;DHT22;730;48.870;12.542;2023-08-24T00:58:05;21.30;1.00
1476;DHT22;730;48.870;12.542;2023-08-24T01:00:32;21.20;1.00
1476;DHT22;730;48.870;12.542;2023-08-24T01:02:58;21.20;1.00
1476;DHT22;730;48.870;12.542;2023-08-24T01:05:24;21.20;1.00
1476;DHT22;730;48.870;12.542;2023-08-24T01:07:50;21.20;1.00
1476;DHT22;730;48.870;12.542;2023-08-24T01:10:17;21.20;1.00
1476;DHT22;730;48.870;12.542;2023-08-24T01:13:07;21.10;1.00
1476;DHT22;730;48.870;12.542;2023-08-24T01:18:11;21.10;1.00
1476;DHT22;730;48.870;12.542;2023-08-24T01:20:42;21.10;1.00
1476;DHT22;730;48.870;12.542;2023-08-24T01:28:33;20.90;1.00
1476;DHT22;730;48.870;12.542;2023-08-24T01:30:59;20.90;1.00
1476;DHT22;730;48.870;12.542;2023-08-24T01:33:26;20.90;1.00
1476;DHT22;730;48.870;12.542;2023-08-24T01:35:52;20.90;1.00
1476;DHT22;730;48.870;12.542;2023-08-24T01:38:18;20.90;1.00
1476;DHT22;730;48.870;12.542;2023-08-24T01:43:34;20.90;1.00
1476;DHT22;730;48.870;12.542;2023-08-24T01:46:04;20.90;1.00
1476;DHT22;730;48.870;12.542;2023-08-24T01:48:31;20.90;1.00
1476;DHT22;730;48.870;12.542;2023-08-24T01:50:58;20.90;1.00
1476;DHT22;730;48.870;12.542;2023-08-24T01:53:26;20.90;1.00
1476;DHT22;730;48.870;12.542;2023-08-24T01:55:52;20.90;1.00
1476;DHT22;730;48.870;12.542;2023-08-24T01:58:19;20.80;1.00
1476;DHT22;730;48.870;12.542;2023-08-24T02:00:46;20.80;1.00
1476;DHT22;730;48.870;12.542;2023-08-24T02:03:12;20.70;1.00
1476;DHT22;730;48.870;12.542;2023-08-24T02:05:38;20.60;1.00
1476;DHT22;730;48.870;12.542;2023-08-24T02:08:04;20.60;1.00
1476;DHT22;730;48.870;12.542;2023-08-24T02:10:30;20.50;1.00
1476;DHT22;730;48.870;12.542;2023-08-24T02:12:56;20.50;1.00
1476;DHT22;730;48.870;12.542;2023-08-24T02:15:22;20.50;1.00
1476;DHT22;730;48.870;12.542;2023-08-24T02:17:48;20.50;1.00
1476;DHT22;730;48.870;12.542;2023-08-24T02:20:14;20.50;1.00
1476;DHT22;730;48.870;12.542;2023-08-24T02:22:41;20.50;1.00
1476;DHT22;730;48.870;12.542;2023-08-24T02:25:09;20.40;1.00
1476;DHT22;730;48.870;12.542;2023-08-24T02:27:35;20.40;1.00
1476;DHT22;730;48.870;12.542;2023-08-24T02:30:01;20.40;1.00
1476;DHT22;730;48.870;12.542;2023-08-24T02:32:27;20.30;1.00
1476;DHT22;730;48.870;12.542;2023-08-24T02:34:53;20.30;1.00
1476;DHT22;730;48.870;12.542;2023-08-24T02:37:19;20.30;1.00
1476;DHT22;730;48.870;12.542;2023-08-24T02:39:45;20.20;1.00
1476;DHT22;730;48.870;12.542;2023-08-24T02:42:14;20.20;1.00
1476;DHT22;730;48.870;12.542;2023-08-24T02:44:40;20.10;1.00
1476;DHT22;730;48.870;12.542;2023-08-24T02:49:47;20.10;1.00
1476;DHT22;730;48.870;12.542;2023-08-24T02:52:14;20.00;1.00
1476;DHT22;730;48.870;12.542;2023-08-24T02:54:40;19.90;1.00
1476;DHT22;730;48.870;12.542;2023-08-24T02:57:06;19.90;1.00
1476;DHT22;730;48.870;12.542;2023-08-24T02:59:32;19.90;1.00
1476;DHT22;730;48.870;12.542;2023-08-24T03:01:58;19.80;1.00
1476;DHT22;730;48.870;12.542;2023-08-24T03:04:24;19.80;1.00
1476;DHT22;730;48.870;12.542;2023-08-24T03:06:50;19.80;1.00
1476;DHT22;730;48.870;12.542;2023-08-24T03:09:16;19.70;1.00
1476;DHT22;730;48.870;12.542;2023-08-24T03:11:42;19.70;1.00
1476;DHT22;730;48.870;12.542;2023-08-24T03:14:08;19.70;1.00
1476;DHT22;730;48.870;12.542;2023-08-24T03:16:34;19.70;1.00
1476;DHT22;730;48.870;12.542;2023-08-24T03:19:00;19.70;1.00
1476;DHT22;730;48.870;12.542;2023-08-24T03:21:26;19.70;1.00
1476;DHT22;730;48.870;12.542;2023-08-24T03:23:52;19.70;1.00
1476;DHT22;730;48.870;12.542;2023-08-24T03:26:19;19.70;1.00
1476;DHT22;730;48.870;12.542;2023-08-24T03:28:46;19.70;1.00
1476;DHT22;730;48.870;12.542;2023-08-24T03:31:12;19.70;1.00
1476;DHT22;730;48.870;12.542;2023-08-24T03:33:38;19.60;1.00
1476;DHT22;730;48.870;12.542;2023-08-24T03:36:04;19.60;1.00
1476;DHT22;730;48.870;12.542;2023-08-24T03:38:30;19.60;1.00
1476;DHT22;730;48.870;12.542;2023-08-24T03:41:03;19.60;1.00
1476;DHT22;730;48.870;12.542;2023-08-24T03:43:33;19.60;1.00
1476;DHT22;730;48.870;12.542;2023-08-24T03:46:01;19.60;1.00
1476;DHT22;730;48.870;12.542;2023-08-24T03:48:27;19.60;1.00
1476;DHT22;730;48.870;12.542;2023-08-24T03:50:57;19.50;1.00
1476;DHT22;730;48.870;12.542;2023-08-24T03:53:24;19.50;1.00
1476;DHT22;730;48.870;12.542;2023-08-24T03:55:51;19.50;1.00
1476;DHT22;730;48.870;12.542;2023-08-24T03:58:17;19.40;1.00
1476;DHT22;730;48.870;12.542;2023-08-24T04:00:44;19.40;1.00
1476;DHT22;730;48.870;12.542;2023-08-24T04:03:11;19.30;1.00
1476;DHT22;730;48.870;12.542;2023-08-24T04:05:37;19.30;1.00
1476;DHT22;730;48.870;12.542;2023-08-24T04:08:03;19.30;1.00
1476;DHT22;730;48.870;12.542;2023-08-24T04:10:30;19.30;1.00
1476;DHT22;730;48.870;12.542;2023-08-24T04:12:56;19.30;1.00
1476;DHT22;730;48.870;12.542;2023-08-24T04:15:22;19.30;1.00
1476;DHT22;730;48.870;12.542;2023-08-24T04:17:49;19.30;1.00
1476;DHT22;730;48.870;12.542;2023-08-24T04:20:15;19.30;1.00
1476;DHT22;730;48.870;12.542;2023-08-24T04:22:42;19.20;1.00
1476;DHT22;730;48.870;12.542;2023-08-24T04:25:08;19.30;1.00
1476;DHT22;730;48.870;12.542;2023-08-24T04:27:36;19.30;1.00
1476;DHT22;730;48.870;12.542;2023-08-24T04:30:02;19.30;1.00
1476;DHT22;730;48.870;12.542;2023-08-24T04:32:29;19.30;1.00
1476;DHT22;730;48.870;12.542;2023-08-24T04:34:55;19.30;1.00
1476;DHT22;730;48.870;12.542;2023-08-24T04:37:21;19.20;1.00
1476;DHT22;730;48.870;12.542;2023-08-24T04:39:47;19.30;1.00
1476;DHT22;730;48.870;12.542;2023-08-24T04:42:13;19.30;1.00
1476;DHT22;730;48.870;12.542;2023-08-24T04:44:40;19.20;1.00
1476;DHT22;730;48.870;12.542;2023-08-24T04:47:06;19.30;1.00
1476;DHT22;730;48.870;12.542;2023-08-24T04:49:32;19.30;1.00
1476;DHT22;730;48.870;12.542;2023-08-24T04:51:58;19.30;1.00
1476;DHT22;730;48.870;12.542;2023-08-24T04:54:24;19.40;1.00
1476;DHT22;730;48.870;12.542;2023-08-24T04:56:50;19.40;1.00
1476;DHT22;730;48.870;12.542;2023-08-24T04:59:16;19.50;1.00
1476;DHT22;730;48.870;12.542;2023-08-24T05:01:42;19.60;1.00
1476;DHT22;730;48.870;12.542;2023-08-24T05:04:08;19.70;1.00
1476;DHT22;730;48.870;12.542;2023-08-24T05:06:34;19.80;1.00
1476;DHT22;730;48.870;12.542;2023-08-24T05:09:00;20.00;1.00
1476;DHT22;730;48.870;12.542;2023-08-24T05:11:27;20.20;1.00
1476;DHT22;730;48.870;12.542;2023-08-24T05:13:55;20.30;1.00
1476;DHT22;730;48.870;12.542;2023-08-24T05:16:21;20.50;1.00
1476;DHT22;730;48.870;12.542;2023-08-24T05:18:48;20.60;1.00
1476;DHT22;730;48.870;12.542;2023-08-24T05:21:14;20.70;1.00
1476;DHT22;730;48.870;12.542;2023-08-24T05:23:40;20.90;1.00
1476;DHT22;730;48.870;12.542;2023-08-24T05:26:06;21.10;1.00
1476;DHT22;730;48.870;12.542;2023-08-24T05:28:33;21.30;1.00
1476;DHT22;730;48.870;12.542;2023-08-24T05:30:59;21.30;1.00
1476;DHT22;730;48.870;12.542;2023-08-24T05:33:26;21.50;1.00
1476;DHT22;730;48.870;12.542;2023-08-24T05:35:52;21.60;1.00
1476;DHT22;730;48.870;12.542;2023-08-24T05:38:18;21.80;1.00
1476;DHT22;730;48.870;12.542;2023-08-24T05:43:57;22.20;1.00
1476;DHT22;730;48.870;12.542;2023-08-24T05:46:23;22.40;1.00
1476;DHT22;730;48.870;12.542;2023-08-24T05:48:49;22.60;1.00
1476;DHT22;730;48.870;12.542;2023-08-24T05:51:15;22.70;1.00
1476;DHT22;730;48.870;12.542;2023-08-24T05:53:41;22.90;1.00
1476;DHT22;730;48.870;12.542;2023-08-24T05:56:07;23.10;1.00
1476;DHT22;730;48.870;12.542;2023-08-24T05:58:33;23.20;1.00
1476;DHT22;730;48.870;12.542;2023-08-24T06:00:59;23.40;1.00
1476;DHT22;730;48.870;12.542;2023-08-24T06:03:26;23.60;1.00
1476;DHT22;730;48.870;12.542;2023-08-24T06:05:52;23.80;1.00
1476;DHT22;730;48.870;12.542;2023-08-24T06:08:18;23.90;1.00
1476;DHT22;730;48.870;12.542;2023-08-24T06:10:44;24.20;1.00
1476;DHT22;730;48.870;12.542;2023-08-24T06:13:10;24.40;1.00
1476;DHT22;730;48.870;12.542;2023-08-24T06:15:36;24.70;1.00
1476;DHT22;730;48.870;12.542;2023-08-24T06:18:02;24.90;1.00
1476;DHT22;730;48.870;12.542;2023-08-24T06:20:29;25.20;1.00
1476;DHT22;730;48.870;12.542;2023-08-24T06:22:55;25.50;1.00
1476;DHT22;730;48.870;12.542;2023-08-24T06:25:21;25.80;1.00
1476;DHT22;730;48.870;12.542;2023-08-24T06:27:49;26.10;1.00
1476;DHT22;730;48.870;12.542;2023-08-24T06:30:15;26.50;1.00
1476;DHT22;730;48.870;12.542;2023-08-24T06:32:41;26.80;1.00
1476;DHT22;730;48.870;12.542;2023-08-24T06:35:07;27.20;1.00
1476;DHT22;730;48.870;12.542;2023-08-24T06:37:33;27.50;1.00
1476;DHT22;730;48.870;12.542;2023-08-24T06:39:59;27.80;1.00
1476;DHT22;730;48.870;12.542;2023-08-24T06:42:25;28.10;1.00
1476;DHT22;730;48.870;12.542;2023-08-24T06:44:51;28.40;1.00
1476;DHT22;730;48.870;12.542;2023-08-24T06:47:17;28.80;1.00
1476;DHT22;730;48.870;12.542;2023-08-24T06:49:43;29.10;1.00
1476;DHT22;730;48.870;12.542;2023-08-24T06:52:09;29.40;1.00
1476;DHT22;730;48.870;12.542;2023-08-24T06:54:35;29.70;1.00
1476;DHT22;730;48.870;12.542;2023-08-24T06:57:02;30.00;1.00
1476;DHT22;730;48.870;12.542;2023-08-24T06:59:28;30.20;1.00
1476;DHT22;730;48.870;12.542;2023-08-24T07:01:54;30.50;1.00
1476;DHT22;730;48.870;12.542;2023-08-24T07:04:20;30.70;1.00
1476;DHT22;730;48.870;12.542;2023-08-24T07:06:46;31.00;1.00
1476;DHT22;730;48.870;12.542;2023-08-24T07:09:13;31.30;1.00
1476;DHT22;730;48.870;12.542;2023-08-24T07:11:41;31.40;1.00
1476;DHT22;730;48.870;12.542;2023-08-24T07:14:07;31.80;1.00
1476;DHT22;730;48.870;12.542;2023-08-24T07:16:33;32.00;1.00
1476;DHT22;730;48.870;12.542;2023-08-24T07:18:59;32.30;1.00
1476;DHT22;730;48.870;12.542;2023-08-24T07:21:25;32.50;1.00
1476;DHT22;730;48.870;12.542;2023-08-24T07:23:51;32.70;1.00
1476;DHT22;730;48.870;12.542;2023-08-24T07:26:17;33.00;1.00
1476;DHT22;730;48.870;12.542;2023-08-24T07:28:43;33.10;1.00
1476;DHT22;730;48.870;12.542;2023-08-24T07:31:10;33.30;1.00
1476;DHT22;730;48.870;12.542;2023-08-24T07:33:37;33.40;1.00
1476;DHT22;730;48.870;12.542;2023-08-24T07:36:06;33.60;1.00
1476;DHT22;730;48.870;12.542;2023-08-24T07:38:32;33.90;1.00
1476;DHT22;730;48.870;12.542;2023-08-24T07:40:59;34.10;1.00
1476;DHT22;730;48.870;12.542;2023-08-24T07:43:25;34.20;1.00
1476;DHT22;730;48.870;12.542;2023-08-24T07:45:51;34.30;1.00
1476;DHT22;730;48.870;12.542;2023-08-24T07:48:18;34.40;1.00
1476;DHT22;730;48.870;12.542;2023-08-24T07:50:44;34.60;1.00
1476;DHT22;730;48.870;12.542;2023-08-24T07:53:10;34.70;1.00
1476;DHT22;730;48.870;12.542;2023-08-24T07:55:36;34.80;1.00
1476;DHT22;730;48.870;12.542;2023-08-24T07:58:02;34.70;1.00
1476;DHT22;730;48.870;12.542;2023-08-24T08:00:29;34.60;1.00
1476;DHT22;730;48.870;12.542;2023-08-24T08:02:55;34.50;1.00
1476;DHT22;730;48.870;12.542;2023-08-24T08:05:23;34.40;1.00
1476;DHT22;730;48.870;12.542;2023-08-24T08:07:49;34.30;1.00
1476;DHT22;730;48.870;12.542;2023-08-24T08:10:15;34.20;1.00
1476;DHT22;730;48.870;12.542;2023-08-24T08:12:43;34.10;1.00
1476;DHT22;730;48.870;12.542;2023-08-24T08:15:09;34.10;1.00
1476;DHT22;730;48.870;12.542;2023-08-24T08:17:35;33.80;1.00
1476;DHT22;730;48.870;12.542;2023-08-24T08:20:01;33.70;1.00
1476;DHT22;730;48.870;12.542;2023-08-24T08:22:28;33.70;1.00
1476;DHT22;730;48.870;12.542;2023-08-24T08:24:54;33.70;1.00
1476;DHT22;730;48.870;12.542;2023-08-24T08:27:23;33.70;1.00
1476;DHT22;730;48.870;12.542;2023-08-24T08:29:50;33.60;1.00
1476;DHT22;730;48.870;12.542;2023-08-24T08:32:16;33.50;1.00
1476;DHT22;730;48.870;12.542;2023-08-24T08:34:42;33.40;1.00
1476;DHT22;730;48.870;12.542;2023-08-24T08:37:08;33.30;1.00
1476;DHT22;730;48.870;12.542;2023-08-24T08:39:35;33.30;1.00
1476;DHT22;730;48.870;12.542;2023-08-24T08:42:01;33.20;1.00
1476;DHT22;730;48.870;12.542;2023-08-24T08:47:34;32.90;1.00
1476;DHT22;730;48.870;12.542;2023-08-24T08:50:03;32.80;1.00
1476;DHT22;730;48.870;12.542;2023-08-24T08:52:29;32.70;1.00
1476;DHT22;730;48.870;12.542;2023-08-24T08:54:55;32.70;1.00
1476;DHT22;730;48.870;12.542;2023-08-24T08:57:23;32.70;1.00
1476;DHT22;730;48.870;12.542;2023-08-24T08:59:51;32.80;1.00
1476;DHT22;730;48.870;12.542;2023-08-24T09:02:19;32.90;1.00
1476;DHT22;730;48.870;12.542;2023-08-24T09:04:46;32.90;1.00
1476;DHT22;730;48.870;12.542;2023-08-24T09:07:13;33.00;1.00
1476;DHT22;730;48.870;12.542;2023-08-24T09:09:40;33.10;1.00
1476;DHT22;730;48.870;12.542;2023-08-24T09:12:06;33.30;1.00
1476;DHT22;730;48.870;12.542;2023-08-24T09:14:35;33.40;1.00
1476;DHT22;730;48.870;12.542;2023-08-24T09:17:01;33.70;1.00
1476;DHT22;730;48.870;12.542;2023-08-24T09:19:30;33.90;1.00
1476;DHT22;730;48.870;12.542;2023-08-24T09:21:57;34.10;1.00
1476;DHT22;730;48.870;12.542;2023-08-24T09:26:57;34.50;1.00
1476;DHT22;730;48.870;12.542;2023-08-24T09:29:23;34.70;1.00
1476;DHT22;730;48.870;12.542;2023-08-24T09:31:50;34.90;1.00
1476;DHT22;730;48.870;12.542;2023-08-24T09:34:20;35.00;1.00
1476;DHT22;730;48.870;12.542;2023-08-24T09:36:47;35.10;1.00
1476;DHT22;730;48.870;12.542;2023-08-24T09:39:16;35.20;1.00
1476;DHT22;730;48.870;12.542;2023-08-24T09:41:50;35.50;1.00
1476;DHT22;730;48.870;12.542;2023-08-24T09:44:19;35.70;1.00
1476;DHT22;730;48.870;12.542;2023-08-24T09:46:45;35.80;1.00
1476;DHT22;730;48.870;12.542;2023-08-24T09:49:12;36.00;1.00
1476;DHT22;730;48.870;12.542;2023-08-24T09:51:40;36.10;1.00
1476;DHT22;730;48.870;12.542;2023-08-24T09:54:09;36.10;1.00
1476;DHT22;730;48.870;12.542;2023-08-24T09:56:39;36.10;1.00
1476;DHT22;730;48.870;12.542;2023-08-24T09:59:13;36.10;1.00
1476;DHT22;730;48.870;12.542;2023-08-24T10:01:42;36.00;1.00
1476;DHT22;730;48.870;12.542;2023-08-24T10:04:09;36.10;1.00
1476;DHT22;730;48.870;12.542;2023-08-24T10:06:38;36.10;1.00
1476;DHT22;730;48.870;12.542;2023-08-24T10:09:18;36.30;1.00
1476;DHT22;730;48.870;12.542;2023-08-24T10:11:50;36.20;1.00
1476;DHT22;730;48.870;12.542;2023-08-24T10:14:31;36.40;1.00
1476;DHT22;730;48.870;12.542;2023-08-24T10:16:58;36.40;1.00
1476;DHT22;730;48.870;12.542;2023-08-24T10:19:24;36.40;1.00
1476;DHT22;730;48.870;12.542;2023-08-24T10:21:53;36.30;1.00
1476;DHT22;730;48.870;12.542;2023-08-24T10:24:20;36.20;1.00
1476;DHT22;730;48.870;12.542;2023-08-24T10:26:50;36.20;1.00
1476;DHT22;730;48.870;12.542;2023-08-24T10:29:16;36.00;1.00
1476;DHT22;730;48.870;12.542;2023-08-24T10:31:44;35.80;1.00
1476;DHT22;730;48.870;12.542;2023-08-24T10:34:10;35.20;1.00
1476;DHT22;730;48.870;12.542;2023-08-24T10:36:40;34.80;1.00
1476;DHT22;730;48.870;12.542;2023-08-24T10:39:07;34.60;1.00
1476;DHT22;730;48.870;12.542;2023-08-24T10:41:49;34.50;1.00
1476;DHT22;730;48.870;12.542;2023-08-24T10:44:33;34.50;1.00
1476;DHT22;730;48.870;12.542;2023-08-24T10:47:20;34.60;1.00
1476;DHT22;730;48.870;12.542;2023-08-24T10:52:22;34.90;1.00
1476;DHT22;730;48.870;12.542;2023-08-24T10:54:50;34.90;1.00
1476;DHT22;730;48.870;12.542;2023-08-24T10:57:22;34.90;1.00
1476;DHT22;730;48.870;12.542;2023-08-24T11:00:20;35.00;1.00
1476;DHT22;730;48.870;12.542;2023-08-24T11:02:50;35.00;1.00
1476;DHT22;730;48.870;12.542;2023-08-24T11:05:20;34.90;1.00
1476;DHT22;730;48.870;12.542;2023-08-24T11:07:55;34.90;1.00
1476;DHT22;730;48.870;12.542;2023-08-24T11:10:23;34.90;1.00
1476;DHT22;730;48.870;12.542;2023-08-24T11:13:05;35.00;1.00
1476;DHT22;730;48.870;12.542;2023-08-24T11:15:40;34.90;1.00
1476;DHT22;730;48.870;12.542;2023-08-24T11:18:25;35.00;1.00
1476;DHT22;730;48.870;12.542;2023-08-24T11:21:03;35.00;1.00
1476;DHT22;730;48.870;12.542;2023-08-24T11:23:29;35.00;1.00
1476;DHT22;730;48.870;12.542;2023-08-24T11:25:57;35.10;1.00
1476;DHT22;730;48.870;12.542;2023-08-24T11:28:29;35.30;1.00
1476;DHT22;730;48.870;12.542;2023-08-24T11:30:57;35.50;1.00
1476;DHT22;730;48.870;12.542;2023-08-24T11:33:31;35.60;1.00
1476;DHT22;730;48.870;12.542;2023-08-24T11:35:59;35.70;1.00
1476;DHT22;730;48.870;12.542;2023-08-24T11:38:56;35.80;1.00
1476;DHT22;730;48.870;12.542;2023-08-24T11:41:22;35.80;1.00
1476;DHT22;730;48.870;12.542;2023-08-24T11:43:49;35.70;1.00
1476;DHT22;730;48.870;12.542;2023-08-24T11:46:17;35.50;1.00
1476;DHT22;730;48.870;12.542;2023-08-24T11:48:44;35.20;1.00
1476;DHT22;730;48.870;12.542;2023-08-24T11:51:12;35.10;1.00
1476;DHT22;730;48.870;12.542;2023-08-24T11:53:40;35.20;1.00
1476;DHT22;730;48.870;12.542;2023-08-24T11:56:11;35.40;1.00
1476;DHT22;730;48.870;12.542;2023-08-24T11:58:42;35.40;1.00
1476;DHT22;730;48.870;12.542;2023-08-24T12:01:10;35.50;1.00
1476;DHT22;730;48.870;12.542;2023-08-24T12:03:37;35.60;1.00
1476;DHT22;730;48.870;12.542;2023-08-24T12:06:13;35.50;1.00
1476;DHT22;730;48.870;12.542;2023-08-24T12:08:41;35.60;1.00
1476;DHT22;730;48.870;12.542;2023-08-24T12:11:12;35.70;1.00
1476;DHT22;730;48.870;12.542;2023-08-24T12:13:43;35.70;1.00
1476;DHT22;730;48.870;12.542;2023-08-24T12:16:10;35.50;1.00
1476;DHT22;730;48.870;12.542;2023-08-24T12:18:50;35.60;1.00
1476;DHT22;730;48.870;12.542;2023-08-24T12:21:16;35.60;1.00
1476;DHT22;730;48.870;12.542;2023-08-24T12:23:43;35.80;1.00
1476;DHT22;730;48.870;12.542;2023-08-24T12:26:17;35.90;1.00
1476;DHT22;730;48.870;12.542;2023-08-24T12:28:43;36.00;1.00
1476;DHT22;730;48.870;12.542;2023-08-24T12:31:14;35.90;1.00
1476;DHT22;730;48.870;12.542;2023-08-24T12:33:40;35.80;1.00
1476;DHT22;730;48.870;12.542;2023-08-24T12:36:06;35.80;1.00
1476;DHT22;730;48.870;12.542;2023-08-24T12:38:32;35.80;1.00
1476;DHT22;730;48.870;12.542;2023-08-24T12:41:00;36.00;1.00
1476;DHT22;730;48.870;12.542;2023-08-24T12:43:26;36.10;1.00
1476;DHT22;730;48.870;12.542;2023-08-24T12:45:52;35.90;1.00
1476;DHT22;730;48.870;12.542;2023-08-24T12:48:18;35.90;1.00
1476;DHT22;730;48.870;12.542;2023-08-24T12:50:44;36.00;1.00
1476;DHT22;730;48.870;12.542;2023-08-24T12:53:10;36.00;1.00
1476;DHT22;730;48.870;12.542;2023-08-24T12:55:39;36.10;1.00
1476;DHT22;730;48.870;12.542;2023-08-24T12:58:06;36.20;1.00
1476;DHT22;730;48.870;12.542;2023-08-24T13:00:32;36.40;1.00
1476;DHT22;730;48.870;12.542;2023-08-24T13:02:58;36.50;1.00
1476;DHT22;730;48.870;12.542;2023-08-24T13:05:24;36.60;1.00
1476;DHT22;730;48.870;12.542;2023-08-24T13:07:50;36.70;1.00
1476;DHT22;730;48.870;12.542;2023-08-24T13:10:17;36.70;1.00
1476;DHT22;730;48.870;12.542;2023-08-24T13:12:43;36.70;1.00
1476;DHT22;730;48.870;12.542;2023-08-24T13:15:10;36.80;1.00
1476;DHT22;730;48.870;12.542;2023-08-24T13:17:37;36.70;1.00
1476;DHT22;730;48.870;12.542;2023-08-24T13:20:04;36.80;1.00
1476;DHT22;730;48.870;12.542;2023-08-24T13:22:30;36.80;1.00
1476;DHT22;730;48.870;12.542;2023-08-24T13:24:56;36.60;1.00
1476;DHT22;730;48.870;12.542;2023-08-24T13:27:22;36.60;1.00
1476;DHT22;730;48.870;12.542;2023-08-24T13:29:48;36.60;1.00
1476;DHT22;730;48.870;12.542;2023-08-24T13:32:14;36.50;1.00
1476;DHT22;730;48.870;12.542;2023-08-24T13:34:40;36.50;1.00
1476;DHT22;730;48.870;12.542;2023-08-24T13:37:07;36.40;1.00
1476;DHT22;730;48.870;12.542;2023-08-24T13:39:33;36.40;1.00
1476;DHT22;730;48.870;12.542;2023-08-24T13:42:01;36.30;1.00
1476;DHT22;730;48.870;12.542;2023-08-24T13:44:27;36.20;1.00
1476;DHT22;730;48.870;12.542;2023-08-24T13:46:53;36.10;1.00
1476;DHT22;730;48.870;12.542;2023-08-24T13:49:20;36.20;1.00
1476;DHT22;730;48.870;12.542;2023-08-24T13:51:46;36.20;1.00
1476;DHT22;730;48.870;12.542;2023-08-24T13:54:17;36.20;1.00
1476;DHT22;730;48.870;12.542;2023-08-24T13:56:45;36.40;1.00
1476;DHT22;730;48.870;12.542;2023-08-24T13:59:12;36.50;1.00
1476;DHT22;730;48.870;12.542;2023-08-24T14:01:38;36.60;1.00
1476;DHT22;730;48.870;12.542;2023-08-24T14:04:05;36.80;1.00
1476;DHT22;730;48.870;12.542;2023-08-24T14:06:31;36.90;1.00
1476;DHT22;730;48.870;12.542;2023-08-24T14:08:58;37.10;1.00
1476;DHT22;730;48.870;12.542;2023-08-24T14:11:24;37.30;1.00
1476;DHT22;730;48.870;12.542;2023-08-24T14:13:50;37.40;1.00
1476;DHT22;730;48.870;12.542;2023-08-24T14:16:17;37.50;1.00
1476;DHT22;730;48.870;12.542;2023-08-24T14:18:53;37.60;1.00
1476;DHT22;730;48.870;12.542;2023-08-24T14:21:20;37.70;1.00
1476;DHT22;730;48.870;12.542;2023-08-24T14:23:46;38.00;1.00
1476;DHT22;730;48.870;12.542;2023-08-24T14:26:12;38.20;1.00
1476;DHT22;730;48.870;12.542;2023-08-24T14:28:57;38.20;1.00
1476;DHT22;730;48.870;12.542;2023-08-24T14:31:28;38.30;1.00
1476;DHT22;730;48.870;12.542;2023-08-24T14:33:55;38.40;1.00
1476;DHT22;730;48.870;12.542;2023-08-24T14:36:22;38.30;1.00
1476;DHT22;730;48.870;12.542;2023-08-24T14:38:49;38.40;1.00
1476;DHT22;730;48.870;12.542;2023-08-24T14:41:15;38.50;1.00
1476;DHT22;730;48.870;12.542;2023-08-24T14:43:41;38.60;1.00
1476;DHT22;730;48.870;12.542;2023-08-24T14:46:09;38.90;1.00
1476;DHT22;730;48.870;12.542;2023-08-24T14:48:35;39.30;1.00
1476;DHT22;730;48.870;12.542;2023-08-24T14:51:02;39.40;1.00
1476;DHT22;730;48.870;12.542;2023-08-24T14:53:28;39.50;1.00
1476;DHT22;730;48.870;12.542;2023-08-24T14:55:55;39.60;1.00
1476;DHT22;730;48.870;12.542;2023-08-24T14:58:22;40.00;1.00
1476;DHT22;730;48.870;12.542;2023-08-24T15:00:54;40.40;1.00
1476;DHT22;730;48.870;12.542;2023-08-24T15:03:23;40.80;1.00
1476;DHT22;730;48.870;12.542;2023-08-24T15:06:01;40.90;1.00
1476;DHT22;730;48.870;12.542;2023-08-24T15:08:28;40.70;1.00
1476;DHT22;730;48.870;12.542;2023-08-24T15:10:55;40.70;1.00
1476;DHT22;730;48.870;12.542;2023-08-24T15:13:26;40.60;1.00
1476;DHT22;730;48.870;12.542;2023-08-24T15:15:55;40.50;1.00
1476;DHT22;730;48.870;12.542;2023-08-24T15:18:23;40.20;1.00
1476;DHT22;730;48.870;12.542;2023-08-24T15:20:50;39.90;1.00
1476;DHT22;730;48.870;12.542;2023-08-24T15:23:28;39.70;1.00
1476;DHT22;730;48.870;12.542;2023-08-24T15:25:55;39.60;1.00
1476;DHT22;730;48.870;12.542;2023-08-24T15:28:22;39.30;1.00
1476;DHT22;730;48.870;12.542;2023-08-24T15:30:48;39.10;1.00
1476;DHT22;730;48.870;12.542;2023-08-24T15:33:15;38.90;1.00
1476;DHT22;730;48.870;12.542;2023-08-24T15:35:42;38.50;1.00
1476;DHT22;730;48.870;12.542;2023-08-24T15:38:09;38.30;1.00
1476;DHT22;730;48.870;12.542;2023-08-24T15:40:35;38.00;1.00
1476;DHT22;730;48.870;12.542;2023-08-24T15:43:02;37.80;1.00
1476;DHT22;730;48.870;12.542;2023-08-24T15:45:29;37.50;1.00
1476;DHT22;730;48.870;12.542;2023-08-24T15:47:59;37.20;1.00
1476;DHT22;730;48.870;12.542;2023-08-24T15:50:25;37.00;1.00
1476;DHT22;730;48.870;12.542;2023-08-24T15:52:52;36.90;1.00
1476;DHT22;730;48.870;12.542;2023-08-24T15:55:27;36.70;1.00
1476;DHT22;730;48.870;12.542;2023-08-24T15:57:53;36.50;1.00
1476;DHT22;730;48.870;12.542;2023-08-24T16:00:19;36.30;1.00
1476;DHT22;730;48.870;12.542;2023-08-24T16:02:45;36.10;1.00
1476;DHT22;730;48.870;12.542;2023-08-24T16:05:11;35.90;1.00
1476;DHT22;730;48.870;12.542;2023-08-24T16:07:37;35.80;1.00
1476;DHT22;730;48.870;12.542;2023-08-24T16:10:04;35.60;1.00
1476;DHT22;730;48.870;12.542;2023-08-24T16:12:31;35.60;1.00
1476;DHT22;730;48.870;12.542;2023-08-24T16:14:57;35.40;1.00
1476;DHT22;730;48.870;12.542;2023-08-24T16:17:24;35.40;1.00
1476;DHT22;730;48.870;12.542;2023-08-24T16:19:50;35.20;1.00
1476;DHT22;730;48.870;12.542;2023-08-24T16:22:16;35.10;1.00
1476;DHT22;730;48.870;12.542;2023-08-24T16:24:42;34.90;1.00
1476;DHT22;730;48.870;12.542;2023-08-24T16:27:08;34.80;1.00
1476;DHT22;730;48.870;12.542;2023-08-24T16:29:34;34.70;1.00
1476;DHT22;730;48.870;12.542;2023-08-24T16:32:00;34.60;1.00
1476;DHT22;730;48.870;12.542;2023-08-24T16:34:26;34.60;1.00
1476;DHT22;730;48.870;12.542;2023-08-24T16:36:52;34.50;1.00
1476;DHT22;730;48.870;12.542;2023-08-24T16:39:18;34.40;1.00
1476;DHT22;730;48.870;12.542;2023-08-24T16:41:44;34.30;1.00
1476;DHT22;730;48.870;12.542;2023-08-24T16:44:10;34.20;1.00